Time;durP1;ratioP1;P1;durP2;ratioP2;P2;SDS_P1;SDS_P2;PMS_P1;PMS_P2;Temp;Humidity;BMP_temperature;BMP_pressure;BME280_temperature;BME280_humidity;BME280_pressure;Samples;Min_cycle;Max_cycle;Signal;HPM_P1;HPM_P2
2021/05/05 00:01:04;;;;;;;7.40;4.68;;;;;;;;;;5046461;28;20037;-73
2021/05/05 00:03:30;;;;;;;8.25;4.93;;;;;;;;;;5045838;28;20425;-74
2021/05/05 00:05:57;;;;;;;12.35;5.32;;;;;;;;;;5050552;28;20043;-74
2021/05/05 00:08:23;;;;;;;9.00;4.90;;;;;;;;;;5053999;28;20035;-73
2021/05/05 00:10:50;;;;;;;9.73;4.85;;;;;;;;;;5049005;28;20525;-73
2021/05/05 00:13:16;;;;;;;9.52;4.50;;;;;;;;;;5033809;28;20037;-74
2021/05/05 00:15:42;;;;;;;8.82;4.70;;;;;;;;;;5047702;28;20036;-73
2021/05/05 00:18:08;;;;;;;7.70;4.50;;;;;;;;;;5027541;28;21979;-73
2021/05/05 00:20:35;;;;;;;6.95;4.03;;;;;;;;;;5047637;28;20166;-72
2021/05/05 00:23:01;;;;;;;6.45;4.00;;;;;;;;;;5046624;28;20118;-72
2021/05/05 00:25:27;;;;;;;8.35;4.20;;;;;;;;;;5047450;28;20029;-74
2021/05/05 00:28:07;;;;;;;6.88;3.90;;;;;;;;;;5043824;28;20040;-74
2021/05/05 00:30:33;;;;;;;8.60;3.90;;;;;;;;;;5033256;28;20535;-76
2021/05/05 00:33:00;;;;;;;6.60;3.80;;;;;;;;;;5050548;28;20082;-76
2021/05/05 00:35:26;;;;;;;7.47;4.22;;;;;;;;;;5049897;28;20082;-75
2021/05/05 00:37:52;;;;;;;7.47;4.00;;;;;;;;;;5024029;28;20068;-73
2021/05/05 00:40:18;;;;;;;7.18;3.92;;;;;;;;;;5039181;28;20044;-72
2021/05/05 00:42:44;;;;;;;9.23;3.95;;;;;;;;;;5052283;28;20101;-74
2021/05/05 00:45:11;;;;;;;6.40;3.92;;;;;;;;;;5048390;28;20025;-72
2021/05/05 00:47:42;;;;;;;6.32;3.63;;;;;;;;;;5056430;28;20477;-75
2021/05/05 00:50:13;;;;;;;10.05;4.45;;;;;;;;;;5031017;28;20029;-75
2021/05/05 00:52:40;;;;;;;7.18;3.75;;;;;;;;;;5045377;28;20025;-75
2021/05/05 00:55:07;;;;;;;9.20;3.80;;;;;;;;;;5048199;28;20049;-74
2021/05/05 00:57:33;;;;;;;6.50;3.60;;;;;;;;;;5051124;28;20033;-75
2021/05/05 01:00:02;;;;;;;7.95;3.53;;;;;;;;;;5048258;28;20041;-74
2021/05/05 01:02:28;;;;;;;6.15;3.00;;;;;;;;;;5038463;28;20032;-72
2021/05/05 01:04:55;;;;;;;8.27;3.60;;;;;;;;;;5050137;28;20029;-74
2021/05/05 01:07:24;;;;;;;7.15;3.55;;;;;;;;;;5033358;28;20099;-74
2021/05/05 01:09:50;;;;;;;5.47;3.17;;;;;;;;;;5021504;28;20029;-72
2021/05/05 01:12:19;;;;;;;8.05;3.30;;;;;;;;;;5055169;28;20022;-74
2021/05/05 01:14:45;;;;;;;6.22;3.33;;;;;;;;;;5035009;28;20028;-73
2021/05/05 01:17:13;;;;;;;7.55;3.17;;;;;;;;;;5053173;28;20029;-75
2021/05/05 01:19:39;;;;;;;7.00;3.10;;;;;;;;;;5060959;28;20025;-74
2021/05/05 01:22:05;;;;;;;7.15;3.20;;;;;;;;;;5030151;28;20116;-74
2021/05/05 01:24:35;;;;;;;6.03;3.45;;;;;;;;;;5051604;28;20091;-72
2021/05/05 01:27:03;;;;;;;7.25;3.20;;;;;;;;;;5060273;28;20021;-75
2021/05/05 01:29:29;;;;;;;6.63;3.33;;;;;;;;;;5032276;28;20032;-73
2021/05/05 01:31:56;;;;;;;6.07;3.28;;;;;;;;;;5058728;28;20667;-74
2021/05/05 01:34:22;;;;;;;6.93;3.15;;;;;;;;;;5045565;28;20032;-75
2021/05/05 01:36:48;;;;;;;8.75;3.10;;;;;;;;;;5051536;28;20035;-72
2021/05/05 01:39:17;;;;;;;8.75;3.70;;;;;;;;;;5042140;28;20033;-74
2021/05/05 01:41:44;;;;;;;4.80;3.00;;;409.60;1536.00;;;;;;5056113;28;20048;-73
2021/05/05 01:44:10;;;;;;;5.40;2.80;;;359.00;1510.40;;;;;;5017648;28;20037;-73
2021/05/05 01:46:50;;;;;;;8.13;3.00;;;384.90;1510.40;;;;;;5052840;28;20363;-74
2021/05/05 01:49:27;;;;;;;6.78;2.78;;;384.90;1510.40;;;;;;5054734;28;20033;-74
2021/05/05 01:51:55;;;;;;;4.65;2.95;;;;;;;;;;5026274;28;20032;-74
2021/05/05 01:54:24;;;;;;;5.63;3.20;;;;;;;;;;5043046;28;20027;-74
2021/05/05 01:56:51;;;;;;;5.30;2.95;;;;;;;;;;5052968;28;20091;-74
2021/05/05 01:59:17;;;;;;;10.75;3.30;;;;;;;;;;5052138;28;20049;-74
2021/05/05 02:01:43;;;;;;;6.40;3.00;;;;;;;;;;5043064;28;20040;-72
2021/05/05 02:04:09;;;;;;;6.65;3.25;;;;;;;;;;5051479;28;20026;-73
2021/05/05 02:06:35;;;;;;;8.50;4.43;;;;;;;;;;5033902;28;20067;-73
2021/05/05 02:09:02;;;;;;;14.45;9.18;;;;;;;;;;5045082;28;20394;-72
2021/05/05 02:11:28;;;;;;;8.60;5.53;;;;;;;;;;5054352;28;20056;-74
2021/05/05 02:13:55;;;;;;;7.20;3.83;;;;;;;;;;5037953;28;20051;-72
2021/05/05 02:16:21;;;;;;;5.60;3.83;;;;;;;;;;5049152;28;20086;-74
2021/05/05 02:18:50;;;;;;;8.00;3.60;;;;;;;;;;5049624;28;20033;-75
2021/05/05 02:21:16;;;;;;;6.82;3.42;;;;;;;;;;5035423;28;20115;-72
2021/05/05 02:23:42;;;;;;;8.15;3.08;;;;;;;;;;5044797;28;20029;-72
2021/05/05 02:26:09;;;;;;;8.80;3.03;;;;;;;;;;5051722;28;20026;-75
2021/05/05 02:28:35;;;;;;;8.55;3.35;;;;;;;;;;5052463;28;20128;-72
2021/05/05 02:31:01;;;;;;;12.55;3.50;;;;;;;;;;5044585;28;20033;-74
2021/05/05 02:33:27;;;;;;;5.38;3.30;;;;;;;;;;5045820;28;20028;-72
2021/05/05 02:35:54;;;;;;;6.10;3.10;;;;;;;;;;5049170;28;20028;-72
2021/05/05 02:38:20;;;;;;;8.77;3.50;;;;;;;;;;5041417;28;20048;-72
2021/05/05 02:40:48;;;;;;;8.65;3.30;;;;;;;;;;5051812;28;20025;-73
2021/05/05 02:43:14;;;;;;;5.45;3.00;;;;;;;;;;5054630;28;20028;-72
2021/05/05 02:45:40;;;;;;;8.93;3.40;;;;;;;;;;5053405;28;20096;-71
2021/05/05 02:48:07;;;;;;;6.47;3.10;;;;;;;;;;5053280;28;20021;-74
2021/05/05 02:50:39;;;;;;;8.30;3.45;;;;;;;;;;5048366;28;20029;-74
2021/05/05 02:53:06;;;;;;;7.85;3.33;;;;;;;;;;5047114;28;20037;-75
2021/05/05 02:55:37;;;;;;;10.10;3.08;;;;;;;;;;5034363;28;20037;-74
2021/05/05 02:58:03;;;;;;;6.97;3.00;;;;;;;;;;5032536;28;20143;-72
2021/05/05 03:00:30;;;;;;;7.95;3.20;;;;;;;;;;5051162;28;20033;-73
2021/05/05 03:02:56;;;;;;;6.05;2.78;;;;;;;;;;5044086;28;20025;-74
2021/05/05 03:05:22;;;;;;;11.63;3.38;;;;;;;;;;5046796;28;20036;-75
2021/05/05 03:07:48;;;;;;;10.55;3.42;;;;;;;;;;5045648;28;20099;-73
2021/05/05 03:10:22;;;;;;;9.27;3.38;;;;;;;;;;5052643;28;20028;-73
2021/05/05 03:12:48;;;;;;;9.52;3.10;;;;;;;;;;5044716;28;20039;-71
2021/05/05 03:15:14;;;;;;;7.18;2.90;;;;;;;;;;5040859;28;20025;-74
2021/05/05 03:17:43;;;;;;;6.65;2.80;;;;;;;;;;5043809;28;20056;-74
2021/05/05 03:20:10;;;;;;;6.75;2.58;;;;;;;;;;5058997;28;20033;-72
2021/05/05 03:22:37;;;;;;;6.57;2.72;;;;;;;;;;5044860;28;20064;-71
2021/05/05 03:25:04;;;;;;;8.05;2.85;;;;;;;;;;5047029;28;20137;-73
2021/05/05 03:27:40;;;;;;;4.72;2.72;;;;;;;;;;5048487;28;20036;-75
2021/05/05 03:30:07;;;;;;;10.80;2.75;;;;;;;;;;5032557;28;20433;-74
2021/05/05 03:32:39;;;;;;;5.72;2.55;;;;;;;;;;5038893;28;20051;-74
2021/05/05 03:35:06;;;;;;;6.13;2.70;;;;;;;;;;5056209;28;20017;-75
2021/05/05 03:37:32;;;;;;;5.57;2.97;;;;;;;;;;5034725;28;20474;-73
2021/05/05 03:39:58;;;;;;;6.82;2.85;;;;;;;;;;5039915;28;20111;-74
2021/05/05 03:42:28;;;;;;;5.13;2.58;;;;;;;;;;5042019;28;20017;-75
2021/05/05 03:44:54;;;;;;;5.80;2.63;;;;;;;;;;5051488;28;20028;-75
2021/05/05 03:47:20;;;;;;;6.15;2.85;;;;;;;;;;5039469;28;20394;-73
2021/05/05 03:49:49;;;;;;;5.60;2.80;;;;;;;;;;5040457;28;20082;-74
2021/05/05 03:52:16;;;;;;;9.85;2.85;;;;;;;;;;5042610;28;20402;-74
2021/05/05 03:54:42;;;;;;;4.72;2.60;;;;;;;;;;5035324;28;20838;-74
2021/05/05 03:57:08;;;;;;;6.75;2.80;;;;;;;;;;5062944;28;20036;-75
2021/05/05 03:59:35;;;;;;;4.88;2.53;;;;;;;;;;5033045;28;20092;-73
2021/05/05 04:02:01;;;;;;;3.72;2.40;;;;;;;;;;5048994;28;20032;-73
2021/05/05 04:04:27;;;;;;;4.88;2.70;;;;;;;;;;5051255;28;20496;-72
2021/05/05 04:06:56;;;;;;;4.93;2.60;;;;;;;;;;5048087;28;20091;-73
2021/05/05 04:09:23;;;;;;;6.20;3.22;;;;;;;;;;5046770;28;20086;-75
2021/05/05 04:11:49;;;;;;;6.32;3.50;;;;;;;;;;5050541;28;20033;-74
2021/05/05 04:14:15;;;;;;;5.15;3.03;;;;;;;;;;5047615;28;20055;-72
2021/05/05 04:16:41;;;;;;;6.68;3.30;;;;;;;;;;5049454;28;20037;-73
2021/05/05 04:19:07;;;;;;;5.65;3.50;;;;;;;;;;5047264;28;20040;-74
2021/05/05 04:21:36;;;;;;;7.78;3.17;;;;;;;;;;5048888;28;20021;-74
2021/05/05 04:24:02;;;;;;;7.10;3.03;;;;;;;;;;5031616;28;20059;-74
2021/05/05 04:26:28;;;;;;;6.28;2.75;;;;;;;;;;5032855;28;20483;-72
2021/05/05 04:29:19;;;;;;;6.60;2.80;;;;;;;;;;5056445;28;20036;-75
2021/05/05 04:31:48;;;;;;;4.85;2.53;;;;;;;;;;5036519;28;20021;-72
2021/05/05 04:34:15;;;;;;;7.57;2.70;;;;;;;;;;5033684;28;20447;-73
2021/05/05 04:36:41;;;;;;;8.70;2.95;;;;;;;;;;5052253;28;20025;-74
2021/05/05 04:39:07;;;;;;;7.47;2.95;;;;;;;;;;5042617;28;20498;-74
2021/05/05 04:41:34;;;;;;;8.23;3.20;;;;;;;;;;5054655;28;20024;-73
2021/05/05 04:44:00;;;;;;;7.07;2.90;;;;;;;;;;5047290;28;20458;-71
2021/05/05 04:46:29;;;;;;;5.95;2.72;;;;;;;;;;5054441;28;20494;-74
2021/05/05 04:48:55;;;;;;;7.65;2.65;;;;;;;;;;5036049;28;20021;-72
2021/05/05 04:51:21;;;;;;;6.47;2.70;;;;;;;;;;5052596;28;20111;-74
2021/05/05 04:53:48;;;;;;;4.70;2.45;;;;;;;;;;5060830;28;20005;-76
2021/05/05 04:56:15;;;;;;;7.05;3.08;;;;;;;;;;5044322;28;20020;-76
2021/05/05 04:58:48;;;;;;;8.63;3.40;;;;;;;;;;5050880;28;20045;-75
2021/05/05 05:01:20;;;;;;;;;;;;;;;;;;5027146;28;20479;-72
2021/05/05 05:03:48;;;;;;;9.00;3.55;;;;;;;;;;5053365;28;19909;-74
2021/05/05 05:06:14;;;;;;;10.63;3.25;;;;;;;;;;5050791;28;20025;-74
2021/05/05 05:08:49;;;;;;;7.60;3.72;;;;;;;;;;5059935;28;20033;-71
2021/05/05 05:11:15;;;;;;;7.65;3.30;;;;;;;;;;5035563;28;20032;-73
2021/05/05 05:13:41;;;;;;;11.23;3.88;;;;;;;;;;5050471;28;20028;-75
2021/05/05 05:16:09;;;;;;;13.90;4.53;;;;;;;;;;5055686;28;20024;-78
2021/05/05 05:18:36;;;;;;;13.98;4.40;;;;;;;;;;5053160;28;20033;-70
2021/05/05 05:21:03;;;;;;;13.95;4.35;;;;;;;;;;5054765;28;20108;-70
2021/05/05 05:23:29;;;;;;;9.45;4.10;;;;;;;;;;5041316;28;20064;-71
2021/05/05 05:25:58;;;;;;;16.05;4.72;;;;;;;;;;5034237;28;20029;-71
2021/05/05 05:28:25;;;;;;;12.02;3.97;;;;;;;;;;5055128;28;20025;-72
2021/05/05 05:30:51;;;;;;;13.10;4.45;;;;;;;;;;5034052;28;20033;-72
2021/05/05 05:33:17;;;;;;;16.23;4.53;;;;;;;;;;5053562;28;20017;-70
2021/05/05 05:35:45;;;;;;;10.18;3.83;;;;;;;;;;5050192;28;20033;-70
2021/05/05 05:38:12;;;;;;;8.02;3.30;;;;;;;;;;5052572;28;20159;-71
2021/05/05 05:40:39;;;;;;;8.25;2.90;;;;;;;;;;5042108;28;20059;-75
2021/05/05 05:43:05;;;;;;;12.77;3.67;;;;;;;;;;5012225;28;20049;-72
2021/05/05 05:45:31;;;;;;;11.55;3.80;;;;;;;;;;5036477;28;20389;-72
2021/05/05 05:47:57;;;;;;;12.30;3.45;;;;;;;;;;5049843;28;20551;-70
2021/05/05 05:50:23;;;;;;;15.07;3.75;;;;;;;;;;5049696;28;20029;-77
2021/05/05 05:53:23;;;;;;;8.63;3.25;;;;;;;;;;5043675;28;20370;-73
2021/05/05 05:55:49;;;;;;;6.65;2.92;;;;;;;;;;5033444;28;20048;-80
2021/05/05 05:58:16;;;;;;;9.80;3.10;;;;;;;;;;5052092;28;20052;-83
2021/05/05 06:00:42;;;;;;;10.63;3.38;;;;;;;;;;5032072;28;20640;-84
2021/05/05 06:03:08;;;;;;;14.32;3.85;;;;;;;;;;5048800;28;20026;-81
2021/05/05 06:05:35;;;;;;;9.27;3.35;;;;;;;;;;5037554;28;20025;-81
2021/05/05 06:08:02;;;;;;;8.85;3.75;;;;;;;;;;5030832;28;20052;-77
2021/05/05 06:10:29;;;;;;;10.18;4.07;;;;;;;;;;5034517;28;20025;-79
2021/05/05 06:12:55;;;;;;;7.60;3.10;;;;;;;;;;5041849;28;20031;-81
2021/05/05 06:15:21;;;;;;;6.93;3.00;;;;;;;;;;5055873;28;20032;-75
2021/05/05 06:17:50;;;;;;;6.55;2.83;;;;;;;;;;5055078;28;20143;-76
2021/05/05 06:20:17;;;;;;;14.10;5.72;;;;;;;;;;5058152;28;20087;-74
2021/05/05 06:22:43;;;;;;;4.65;2.38;;;;;;;;;;5056298;28;20029;-75
2021/05/05 06:25:12;;;;;;;3.80;2.30;;;;;;;;;;5034008;28;20045;-74
2021/05/05 06:27:51;;;;;;;5.18;2.40;;;;;;;;;;5045244;28;20028;-83
2021/05/05 06:30:22;;;;;;;5.70;3.17;;;;;;;;;;5037938;28;20028;-75
2021/05/05 06:33:36;;;;;;;5.47;2.78;;;;;;;;;;5056969;28;20021;-78
2021/05/05 06:35:56;;;;;;;5.43;2.70;;;;;;;;;;5044450;28;20028;-78
2021/05/05 06:38:22;;;;;;;10.25;3.20;;;;;;;;;;5053005;28;20033;-81
2021/05/05 06:40:48;;;;;;;6.75;2.78;;;;;;;;;;5033911;28;20033;-77
2021/05/05 06:43:14;;;;;;;5.18;2.88;;;;;;;;;;5056210;28;20035;-80
2021/05/05 06:45:40;;;;;;;6.72;2.78;;;;;;;;;;5051604;28;20369;-77
2021/05/05 06:48:09;;;;;;;4.90;2.65;;;;;;;;;;5047538;28;20017;-78
2021/05/05 06:50:36;;;;;;;6.45;2.90;;;;;;;;;;5031112;28;20383;-76
2021/05/05 06:53:02;;;;;;;5.53;2.70;;;;;;;;;;5044956;28;20470;-76
2021/05/05 06:55:28;;;;;;;6.43;2.80;;;;;;;;;;5054458;28;20029;-78
2021/05/05 06:57:54;;;;;;;6.78;3.17;;;;;;;;;;5048526;28;20037;-76
2021/05/05 07:00:21;;;;;;;5.97;2.90;;;;;;;;;;5047217;28;20048;-76
2021/05/05 07:02:47;;;;;;;5.45;2.65;;;;;;;;;;5022789;28;20426;-74
2021/05/05 07:05:13;;;;;;;5.43;2.85;;;;;;;;;;5036969;28;20037;-75
2021/05/05 07:07:39;;;;;;;7.55;2.83;;;;;;;;;;5046538;28;20487;-80
2021/05/05 07:10:06;;;;;;;16.85;4.28;;;;;;;;;;5029019;28;20474;-83
2021/05/05 07:12:32;;;;;;;10.52;3.35;;;;;;;;;;5033789;28;20033;-82
2021/05/05 07:14:58;;;;;;;6.40;2.75;;;;;;;;;;5053365;28;20021;-81
2021/05/05 07:17:24;;;;;;;6.00;3.17;;;;;;;;;;5033788;28;20090;-78
2021/05/05 07:19:51;;;;;;;10.55;3.20;;;;;;;;;;5053810;28;20521;-75
2021/05/05 07:22:20;;;;;;;6.78;2.90;;;;;;;;;;5050489;28;20051;-76
2021/05/05 07:24:47;;;;;;;4.88;2.75;;;;;;;;;;5052159;28;20029;-77
2021/05/05 07:27:13;;;;;;;12.50;3.55;;;;;;;;;;5051628;28;20033;-78
2021/05/05 07:29:40;;;;;;;8.15;2.80;;;;;;;;;;5041905;28;20030;-77
2021/05/05 07:32:06;;;;;;;11.27;3.58;;;;;;;;;;5046152;28;20115;-77
2021/05/05 07:34:33;;;;;;;8.45;2.90;;;;;;;;;;5038935;28;20033;-79
2021/05/05 07:37:12;;;;;;;8.30;2.97;;;;;;;;;;5025329;28;20026;-77
2021/05/05 07:42:52;;;;;;;9.05;3.30;;;;;;;;;;5044773;28;20044;-78
2021/05/05 07:47:48;;;;;;;5.70;2.58;;;;;;;;;;5046892;28;20033;-77
2021/05/05 07:50:14;;;;;;;8.52;3.00;;;;;;;;;;5047147;28;20371;-76
2021/05/05 07:52:40;;;;;;;6.40;2.72;;;;;;;;;;5025653;28;20104;-80
2021/05/05 07:55:08;;;;;;;7.68;3.22;;;;;;;;;;5047543;28;20031;-79
2021/05/05 07:57:34;;;;;;;12.93;3.30;;;;;;;;;;5019034;28;20033;-80
2021/05/05 08:00:00;;;;;;;10.45;3.83;;;;;;;;;;5049905;28;20063;-79
2021/05/05 08:02:26;;;;;;;7.60;2.60;;;;;;;;;;5044896;28;20029;-79
2021/05/05 08:04:52;;;;;;;9.18;3.60;;;;;;;;;;5041704;28;20072;-79
2021/05/05 08:07:22;;;;;;;5.40;3.05;;;;;;;;;;5042333;28;20028;-78
2021/05/05 08:09:48;;;;;;;10.35;3.80;;;;;;;;;;5042084;28;20387;-80
2021/05/05 08:12:15;;;;;;;17.17;6.68;;;;;;;;;;5030677;28;20553;-78
2021/05/05 08:14:41;;;;;;;10.85;4.10;;;;;;;;;;5051890;28;20023;-77
2021/05/05 08:17:08;;;;;;;7.32;3.72;;;;;;;;;;5025060;28;20029;-76
2021/05/05 08:19:34;;;;;;;10.38;4.70;;;;;;;;;;5053264;28;20029;-76
2021/05/05 08:22:01;;;;;;;11.25;4.75;;;;;;;;;;5031457;28;20064;-77
2021/05/05 08:24:37;;;;;;;13.38;4.85;;;;;;;;;;5050967;28;20021;-78
2021/05/05 08:27:03;;;;;;;8.75;4.10;;;;;;;;;;5039368;28;20260;-77
2021/05/05 08:29:31;;;;;;;9.23;3.97;;;;;;;;;;5043132;28;20121;-76
2021/05/05 08:31:58;;;;;;;10.98;4.18;;;;;;;;;;5051711;28;20104;-78
2021/05/05 08:34:27;;;;;;;10.68;3.50;;;;;;;;;;5051481;28;20029;-72
2021/05/05 08:37:03;;;;;;;14.05;4.03;;;;;;;;;;5051864;28;20395;-73
2021/05/05 08:39:29;;;;;;;9.20;3.58;;;;;;;;;;5018646;28;20507;-75
2021/05/05 08:41:58;;;;;;;8.40;3.25;;;;;;;;;;5050670;28;20429;-76
2021/05/05 08:44:25;;;;;;;19.73;4.63;;;;;;;;;;5052282;28;20482;-81
2021/05/05 08:49:58;;;;;;;9.48;3.70;;;;;;;;;;4990971;28;20035;-75
2021/05/05 08:52:24;;;;;;;6.35;3.30;;;;;;;;;;4976148;28;20085;-80
2021/05/05 08:54:50;;;;;;;11.38;4.03;;;;;;;;;;4968309;28;20034;-73
2021/05/05 08:57:18;;;;;;;16.77;4.18;;;;;;;;;;4973620;28;20211;-72
2021/05/05 08:59:44;;;;;;;14.60;4.32;;;;;;;;;;4984191;28;20145;-70
2021/05/05 09:02:10;;;;;;;8.13;3.58;;;;;;;;;;4990177;28;20117;-73
2021/05/05 09:04:36;;;;;;;23.90;7.90;;;;;;;;;;4970508;28;20042;-74
2021/05/05 09:07:02;;;;;;;25.67;6.35;;;;;;;;;;4982798;28;20481;-73
2021/05/05 09:09:43;;;;;;;40.78;6.63;;;;;;;;;;4985717;28;20041;-74
2021/05/05 09:12:12;;;;;;;15.98;5.00;;;;;;;;;;4991932;28;20118;-73
2021/05/05 09:14:55;;;;;;;9.77;3.97;;;;;;;;;;4989520;28;20066;-73
2021/05/05 09:17:31;;;;;;;10.18;4.10;;;;;;;;;;4985070;28;20081;-74
2021/05/05 09:20:18;;;;;;;39.90;6.07;;;;;;;;;;4986921;28;20054;-73
2021/05/05 09:22:50;;;;;;;22.63;4.35;;;;;;;;;;4979776;28;20471;-71
2021/05/05 09:25:17;;;;;;;19.05;4.95;;;;;;;;;;4990813;28;20517;-71
2021/05/05 09:27:44;;;;;;;7.47;3.70;;;;;;;;;;5045216;28;20029;-78
2021/05/05 09:30:20;;;;;;;6.53;3.17;;;;;;;;;;5047087;28;20035;-74
2021/05/05 09:32:48;;;;;;;8.60;3.25;;;;;;;;;;5052465;28;20563;-75
2021/05/05 09:35:14;;;;;;;7.30;3.60;;;;;;;;;;5044956;28;20040;-73
2021/05/05 09:37:40;;;;;;;7.28;3.15;;;;;;;;;;5050294;28;20029;-73
2021/05/05 09:40:07;;;;;;;6.97;3.10;;;;;;;;;;5050501;28;20037;-77
2021/05/05 09:42:34;;;;;;;8.50;3.10;;;;;;;;;;5051472;28;20028;-74
2021/05/05 09:45:01;;;;;;;7.78;3.10;;;;;;;;;;5036069;28;20028;-75
2021/05/05 09:47:47;;;;;;;8.60;2.88;;;;;;;;;;5045983;28;20029;-76
2021/05/05 09:50:29;;;;;;;13.52;3.10;;;;;;;;;;5041433;28;20033;-77
2021/05/05 09:53:24;;;;;;;18.30;3.33;;;;;;;;;;5040519;28;20075;-77
2021/05/05 09:55:59;;;;;;;7.95;2.72;;;;;;;;;;4963291;28;20500;-75
2021/05/05 09:58:30;;;;;;;10.07;2.90;;;;;;;;;;4970932;28;20053;-73
2021/05/05 10:01:06;;;;;;;8.95;3.30;;;;;;;;;;4969085;28;20055;-73
2021/05/05 10:03:39;;;;;;;5.32;2.83;;;;;;;;;;4969061;28;20437;-74
2021/05/05 10:06:17;;;;;;;4.97;2.40;;;;;;;;;;4972605;28;20117;-71
2021/05/05 10:08:43;;;;;;;6.85;2.92;;;;;;;;;;4970201;28;20039;-70
2021/05/05 10:11:09;;;;;;;10.95;3.47;;;;;;;;;;4971495;28;20027;-74
2021/05/05 10:13:36;;;;;;;7.15;3.10;;;;;;;;;;4968699;28;20046;-75
2021/05/05 10:16:05;;;;;;;15.77;3.55;;;;;;;;;;4972894;28;20204;-72
2021/05/05 10:18:31;;;;;;;8.27;3.58;;;;;;;;;;4970308;28;20046;-74
2021/05/05 10:20:57;;;;;;;10.07;3.40;;;;;;;;;;4973856;28;20030;-74
2021/05/05 10:23:24;;;;;;;9.20;3.35;;;;;;;;;;4969221;28;20428;-73
2021/05/05 10:25:50;;;;;;;13.43;3.15;;;;;;;;;;4966146;28;20035;-70
2021/05/05 10:28:17;;;;;;;16.05;3.83;;;;;;;;;;4970924;28;20041;-73
2021/05/05 10:30:44;;;;;;;8.63;2.70;;;;;;;;;;4969566;28;20566;-74
2021/05/05 10:33:18;;;;;;;6.55;2.80;;;;;;;;;;5045035;28;20040;-72
2021/05/05 10:39:05;;;;;;;12.55;3.47;;;;;;;;;;5038359;28;20064;-69
2021/05/05 10:41:31;;;;;;;8.40;3.10;;;;;;;;;;5004530;28;20046;-72
2021/05/05 10:44:02;;;;;;;11.35;3.60;;;;;;;;;;4998431;28;20038;-82
2021/05/05 10:46:32;;;;;;;7.00;2.70;;;;;;;;;;5017134;28;20060;-77
2021/05/05 10:49:01;;;;;;;9.00;3.00;;;;;;;;;;5002625;28;20046;-87
2021/05/05 10:51:49;;;;;;;7.68;3.35;;;;;;;;;;4999993;28;20037;-76
2021/05/05 10:54:16;;;;;;;6.72;2.42;;;;;;;;;;5005625;28;20205;-78
2021/05/05 10:56:45;;;;;;;7.18;3.10;;;;;;;;;;5001084;28;20127;-77
2021/05/05 10:59:12;;;;;;;7.30;3.10;;;;;;;;;;5009324;28;20223;-80
2021/05/05 11:01:38;;;;;;;7.72;3.35;;;;;;;;;;5001293;28;20116;-79
2021/05/05 11:04:05;;;;;;;5.22;2.85;;;;;;;;;;5006887;28;20031;-87
2021/05/05 11:06:32;;;;;;;9.75;3.15;;;;;;;;;;5019119;28;20051;-75
2021/05/05 11:09:40;;;;;;;5.82;2.92;;;;;;;;;;5050449;28;20025;-77
2021/05/05 11:12:06;;;;;;;8.45;3.00;;;;;;;;;;5007821;28;20107;-75
2021/05/05 11:14:35;;;;;;;9.00;2.78;;;;;;;;;;5008205;28;20034;-78
2021/05/05 11:17:06;;;;;;;3.60;2.22;;;;;;;;;;5008167;28;20503;-73
2021/05/05 11:19:38;;;;;;;5.40;2.70;;;;;;;;;;4990426;28;20411;-74
2021/05/05 11:22:07;;;;;;;13.88;3.20;;;;;;;;;;5013519;28;20030;-74
2021/05/05 11:24:37;;;;;;;5.10;2.75;;;;;;;;;;5011246;28;20046;-74
2021/05/05 11:27:05;;;;;;;9.32;3.03;;;;;;;;;;5009448;28;20026;-81
2021/05/05 11:29:35;;;;;;;5.50;3.13;;;;;;;;;;5011328;28;20037;-76
2021/05/05 11:32:04;;;;;;;11.02;3.33;;;;;;;;;;5008603;28;20033;-82
2021/05/05 11:34:34;;;;;;;7.50;3.10;;;;;;;;;;4988674;28;20038;-77
2021/05/05 11:37:00;;;;;;;5.50;3.00;;;;;;;;;;5013819;28;20037;-74
2021/05/05 11:39:36;;;;;;;6.88;3.00;;;;;;;;;;5006022;28;20070;-75
2021/05/05 11:42:11;;;;;;;9.55;2.95;;;;;;;;;;5014236;28;20029;-81
2021/05/05 11:44:41;;;;;;;10.27;3.30;;;;;;;;;;5053229;28;20035;-76
2021/05/05 11:47:09;;;;;;;8.95;2.90;;;;;;;;;;5055117;28;20099;-74
2021/05/05 11:49:38;;;;;;;8.48;3.40;;;;;;;;;;5026117;28;20106;-78
2021/05/05 11:52:36;;;;;;;6.63;2.70;;;;;;;;;;5044807;28;21972;-83
2021/05/05 11:55:08;;;;;;;10.85;3.33;;;;;;;;;;4967967;28;20089;-83
2021/05/05 11:57:47;;;;;;;6.32;2.53;;;;;;;;;;4968358;28;20035;-75
2021/05/05 12:00:33;;;;;;;7.72;2.70;;;;;;;;;;4972435;28;20050;-74
2021/05/05 12:03:02;;;;;;;7.25;3.20;;;;;;;;;;4954044;28;20090;-75
2021/05/05 12:05:36;;;;;;;10.75;3.53;;;;;;;;;;4954329;28;20098;-77
2021/05/05 12:08:02;;;;;;;;;;;;;;;;;;4968329;28;20397;-77
2021/05/05 12:10:37;;;;;;;7.03;2.47;;;;;;;;;;4969464;28;20009;-80
2021/05/05 12:13:12;;;;;;;8.43;3.50;;;;;;;;;;4967626;28;20066;-76
2021/05/05 12:15:41;;;;;;;40.90;25.15;;;;;;;;;;4967880;28;20432;-77
2021/05/05 12:18:14;;;;;;;25.77;13.90;;;;;;;;;;4968195;28;20125;-76
2021/05/05 12:20:40;;;;;;;;;;;;;;;;;;4967096;28;20071;-75
2021/05/05 12:23:07;;;;;;;24.75;16.48;;;;;;;;;;4948822;28;19992;-74
2021/05/05 12:25:33;;;;;;;9.60;5.20;;;;;;;;;;4964272;28;20030;-74
2021/05/05 12:28:20;;;;;;;23.30;16.65;;;;;;;;;;4964035;28;20038;-78
2021/05/05 12:30:48;;;;;;;13.32;5.78;;;;;;;;;;4993392;28;20044;-74
2021/05/05 12:33:15;;;;;;;14.43;6.88;;;;;;;;;;5030933;28;20580;-86
2021/05/05 12:35:41;;;;;;;6.25;3.65;;;;;;;;;;5050379;28;20193;-79
2021/05/05 12:38:12;;;;;;;14.90;8.65;;;;;;;;;;5049574;28;20491;-78
2021/05/05 12:40:38;;;;;;;8.57;4.38;;;;;;;;;;5036858;28;20041;-79
2021/05/05 12:43:11;;;;;;;11.07;5.93;;;;;;;;;;5052324;28;20032;-78
2021/05/05 12:45:38;;;;;;;8.07;3.00;;;;;;;;;;5047322;28;20026;-75
2021/05/05 12:48:05;;;;;;;9.95;6.15;;;;;;;;;;5033354;28;20017;-82
2021/05/05 12:50:49;;;;;;;7.82;4.80;;;;;;;;;;5028730;28;20483;-79
2021/05/05 12:53:16;;;;;;;9.50;5.05;;;;;;;;;;5050274;28;20029;-78
2021/05/05 12:55:42;;;;;;;8.40;4.10;;;;;;;;;;5044569;28;20041;-77
2021/05/05 12:58:12;;;;;;;12.50;3.67;;;;;;;;;;5022415;28;20049;-80
2021/05/05 13:00:39;;;;;;;8.35;2.83;;;;;;;;;;5033257;28;20041;-81
2021/05/05 13:03:07;;;;;;;9.15;3.53;;;;;;;;;;5035792;28;20058;-81
2021/05/05 13:05:34;;;;;;;6.55;2.28;;;;;;;;;;5054235;28;20036;-78
2021/05/05 13:08:10;;;;;;;6.20;2.35;;;;;;;;;;5021220;28;20030;-81
2021/05/05 13:10:47;;;;;;;6.72;2.70;;;;;;;;;;5048920;28;20063;-81
2021/05/05 13:13:21;;;;;;;6.82;2.50;;;;;;;;;;5043210;28;20017;-82
2021/05/05 13:25:45;;;;;;;6.50;2.40;;;;;;;;;;5053900;28;20037;-83
2021/05/05 13:32:33;;;;;;;13.45;5.40;;;;;;;;;;5053682;28;20044;-82
2021/05/05 13:35:22;;;;;;;5.95;3.00;;;;;;;;;;5051558;28;20097;-83
2021/05/05 13:37:59;;;;;;;7.60;2.95;;;;;;;;;;5033591;28;20029;-81
2021/05/05 13:40:26;;;;;;;14.82;2.70;;;;;;;;;;5040387;28;20052;-79
2021/05/05 13:42:55;;;;;;;8.50;2.90;;;;;;;;;;5028595;28;20029;-78
2021/05/05 13:45:21;;;;;;;5.47;2.47;;;;;;;;;;5047790;28;20033;-78
2021/05/05 13:48:07;;;;;;;6.45;2.50;;;;;;;;;;5048171;28;20056;-82
2021/05/05 13:50:34;;;;;;;7.15;2.45;;;;;;;;;;5034423;28;20022;-83
2021/05/05 13:53:00;;;;;;;5.47;2.35;;;;;;;;;;5057598;28;20025;-80
2021/05/05 13:55:26;;;;;;;7.85;2.72;;;;;;;;;;5028249;28;20109;-82
2021/05/05 13:57:52;;;;;;;5.13;2.38;;;;;;;;;;5052095;28;20060;-82
2021/05/05 14:00:19;;;;;;;8.00;2.90;;;;;;;;;;5032566;28;21493;-77
2021/05/05 14:02:45;;;;;;;12.52;3.60;;;;;;;;;;5052554;28;20025;-79
2021/05/05 14:05:14;;;;;;;10.93;3.83;;;;;;;;;;5056328;28;20060;-79
2021/05/05 14:07:46;;;;;;;7.03;2.47;;;;;;;;;;5054311;28;20056;-83
2021/05/05 14:10:12;;;;;;;4.35;2.63;;;;;;;;;;5035501;28;20021;-81
2021/05/05 14:12:38;;;;;;;9.75;3.10;;;;;;;;;;5051989;28;20025;-81
2021/05/05 14:15:09;;;;;;;5.30;2.80;;;;;;;;;;5037732;28;20482;-82
2021/05/05 14:17:37;;;;;;;7.35;2.97;;;;;;;;;;5057848;28;20493;-82
2021/05/05 14:20:10;;;;;;;4.97;2.80;;;;;;;;;;5037404;28;20052;-81
2021/05/05 14:22:37;;;;;;;10.35;2.78;;;;;;;;;;5039227;28;20029;-80
2021/05/05 14:25:07;;;;;;;6.07;2.65;;;;;;;;;;5028977;28;20033;-83
2021/05/05 14:27:34;;;;;;;5.05;2.70;;;;;;;;;;5053009;28;20017;-82
2021/05/05 14:30:00;;;;;;;8.77;2.67;;;;;;;;;;5028735;28;20391;-81
2021/05/05 14:32:26;;;;;;;9.85;3.40;;;;;;;;;;5050111;28;20927;-80
2021/05/05 14:34:52;;;;;;;8.02;2.78;;;;;;;;;;5049614;28;20025;-79
2021/05/05 14:37:19;;;;;;;8.10;3.15;;;;;;;;;;5056862;28;20104;-81
2021/05/05 14:39:45;;;;;;;4.90;2.40;;;;;;;;;;5020867;28;20052;-82
2021/05/05 14:42:17;;;;;;;8.52;2.80;;;;;;;;;;5026654;28;20021;-81
2021/05/05 14:50:12;;;;;;;5.00;2.50;;;;;;;;;;5054118;28;20087;-76
2021/05/05 14:52:38;;;;;;;8.40;2.67;;;;;;;;;;5045939;28;20025;-81
2021/05/05 14:55:05;;;;;;;7.22;2.75;;;;;;;;;;5033906;28;20438;-80
2021/05/05 14:57:35;;;;;;;6.28;2.45;;;;;;;;;;5037636;28;20108;-81
2021/05/05 15:00:01;;;;;;;5.75;2.70;;;;;;;;;;5029715;28;20079;-82
2021/05/05 15:02:27;;;;;;;12.35;3.28;;;;;;;;;;5043458;28;20296;-83
2021/05/05 15:04:53;;;;;;;6.63;2.97;;;;;;;;;;5044719;28;20055;-77
2021/05/05 15:07:19;;;;;;;6.80;2.75;;;;;;;;;;5054954;28;20028;-82
2021/05/05 15:34:45;;;;;;;8.43;3.97;;;;;;;;;;4913933;29;20099;-81
2021/05/05 15:37:25;;;;;;;11.02;3.65;;;;;;;;;;4907211;29;20063;-79
2021/05/05 15:39:54;;;;;;;8.43;3.38;;;;;;;;;;4917837;29;20055;-78
2021/05/05 15:42:20;;;;;;;6.70;3.40;;;;;;;;;;4914165;29;20036;-81
2021/05/05 15:47:17;;;;;;;5.80;3.13;;;;;;;;;;4922091;29;20190;-80